Time;durP1;ratioP1;P1;durP2;ratioP2;P2;SDS_P1;SDS_P2;PMS_P1;PMS_P2;Temp;Humidity;BMP_temperature;BMP_pressure;BME280_temperature;BME280_humidity;BME280_pressure;Samples;Min_cycle;Max_cycle;Signal;HPM_P1;HPM_P2
2021/12/25 00:00:00;;;;;;;7.20;3.22;;;18.90;60.10;;;;;;10406874;28;20046;-58
2021/12/25 00:05:25;;;;;;;7.32;3.67;;;18.90;59.50;;;;;;10407735;28;20071;-59
2021/12/25 00:10:32;;;;;;;10.05;3.75;;;18.90;59.80;;;;;;10410945;28;20554;-59
2021/12/25 00:15:38;;;;;;;6.35;3.40;;;18.90;59.90;;;;;;10412313;28;20053;-59
2021/12/25 00:20:43;;;;;;;7.47;3.03;;;18.80;60.10;;;;;;10413065;28;20098;-59
2021/12/25 00:25:55;;;;;;;8.90;3.40;;;18.90;60.40;;;;;;10412554;28;20455;-59
2021/12/25 00:31:28;;;;;;;8.35;3.33;;;18.90;60.50;;;;;;10412564;28;20060;-59
2021/12/25 00:36:33;;;;;;;8.18;3.80;;;18.90;60.60;;;;;;10410007;28;20496;-59
2021/12/25 00:41:40;;;;;;;12.40;6.70;;;18.80;60.60;;;;;;10411822;28;20506;-59
2021/12/25 00:46:47;;;;;;;14.70;7.32;;;18.80;60.70;;;;;;10411508;28;20045;-59
2021/12/25 00:51:52;;;;;;;15.18;6.50;;;18.80;61.50;;;;;;10411865;28;20045;-59
2021/12/25 00:57:02;;;;;;;11.40;6.03;;;18.80;60.90;;;;;;10409906;28;20097;-59
2021/12/25 01:02:08;;;;;;;9.70;5.68;;;18.80;61.00;;;;;;10408739;28;20079;-60
2021/12/25 01:07:14;;;;;;;11.43;5.55;;;18.80;61.00;;;;;;10411359;28;20481;-59
2021/12/25 01:12:24;;;;;;;11.30;4.97;;;18.80;61.00;;;;;;10411931;28;20071;-59
2021/12/25 01:23:18;;;;;;;13.70;4.82;;;18.70;60.90;;;;;;10410233;28;20118;-59
2021/12/25 01:39:23;;;;;;;8.60;2.28;;;18.60;60.80;;;;;;10403197;28;20459;-60
2021/12/25 01:50:25;;;;;;;9.75;2.17;;;18.60;60.90;;;;;;10406980;28;20057;-60
2021/12/25 01:55:30;;;;;;;6.53;2.20;;;18.50;60.80;;;;;;10409806;28;20482;-59
2021/12/25 02:00:39;;;;;;;6.75;2.17;;;18.50;60.80;;;;;;10409460;28;20049;-59
2021/12/25 02:05:45;;;;;;;5.60;2.00;;;18.50;60.80;;;;;;10408730;28;20049;-60
2021/12/25 02:11:04;;;;;;;5.10;1.80;;;18.40;60.80;;;;;;10407595;28;20045;-60
2021/12/25 02:16:18;;;;;;;7.35;2.25;;;18.40;60.90;;;;;;10408223;28;20075;-60
2021/12/25 02:21:37;;;;;;;7.20;2.10;;;18.40;60.90;;;;;;10408234;28;20447;-60
2021/12/25 02:26:44;;;;;;;3.65;1.95;;;18.30;60.80;;;;;;10407652;28;20546;-60
2021/12/25 02:31:49;;;;;;;3.65;2.33;;;18.30;60.80;;;;;;10407022;28;20057;-60
2021/12/25 02:36:54;;;;;;;3.72;2.15;;;18.30;60.80;;;;;;10406820;28;20479;-60
2021/12/25 02:42:00;;;;;;;9.00;2.05;;;18.30;60.90;;;;;;10407333;28;20118;-59
2021/12/25 02:47:10;;;;;;;3.40;1.90;;;18.20;61.40;;;;;;10413164;28;20112;-60
2021/12/25 02:52:16;;;;;;;6.43;2.08;;;18.20;60.80;;;;;;10413779;28;20534;-60
2021/12/25 02:57:21;;;;;;;6.95;2.67;;;18.20;60.80;;;;;;10413583;28;20118;-60
2021/12/25 03:02:25;;;;;;;5.82;2.53;;;18.20;60.80;;;;;;10413559;28;20079;-60
2021/12/25 03:07:31;;;;;;;7.45;2.35;;;18.20;60.80;;;;;;10419013;28;20542;-60
2021/12/25 03:12:48;;;;;;;8.07;2.05;;;18.20;60.70;;;;;;10419572;28;20050;-59
2021/12/25 03:17:55;;;;;;;5.38;1.65;;;18.10;60.50;;;;;;10412924;28;20106;-59
2021/12/25 03:23:00;;;;;;;3.63;1.58;;;18.10;60.40;;;;;;10415098;28;20071;-59
2021/12/25 03:28:05;;;;;;;5.85;1.50;;;18.10;60.50;;;;;;10413648;28;20049;-59
2021/12/25 03:33:14;;;;;;;3.03;1.45;;;18.10;60.60;;;;;;10412270;28;20057;-59
2021/12/25 03:38:20;;;;;;;3.95;1.48;;;18.00;60.50;;;;;;10413947;28;20049;-60
2021/12/25 03:43:26;;;;;;;8.02;3.97;;;18.00;60.50;;;;;;10413787;28;20037;-60
2021/12/25 03:49:27;;;;;;;8.20;4.10;;;18.00;60.30;;;;;;10412855;28;20045;-60
2021/12/25 03:59:20;;;;;;;9.43;4.75;;;17.90;60.40;;;;;;10411765;28;20406;-59
2021/12/25 04:04:33;;;;;;;6.72;4.93;;;17.90;60.40;;;;;;10413664;28;20102;-59
2021/12/25 04:09:40;;;;;;;11.07;6.88;;;17.90;60.30;;;;;;10411316;28;20118;-60
2021/12/25 04:14:45;;;;;;;13.60;7.95;;;17.90;60.40;;;;;;10411023;28;20049;-60
2021/12/25 04:19:50;;;;;;;13.05;7.18;;;17.90;60.20;;;;;;10411401;28;20045;-59
2021/12/25 04:24:58;;;;;;;11.48;7.00;;;18.00;59.80;;;;;;10411327;28;20063;-60
2021/12/25 04:30:20;;;;;;;11.00;6.15;;;18.20;59.30;;;;;;10411232;28;20054;-60
2021/12/25 05:02:49;;;;;;;11.57;4.90;;;19.00;57.30;;;;;;10409509;28;20053;-60
2021/12/25 05:08:12;;;;;;;10.77;4.75;;;19.20;57.00;;;;;;10391800;28;20045;-60
2021/12/25 05:13:17;;;;;;;8.90;4.30;;;19.30;57.10;;;;;;10409733;28;20049;-60
2021/12/25 05:18:22;;;;;;;9.80;3.88;;;19.40;57.10;;;;;;10409136;28;20057;-60
2021/12/25 05:23:28;;;;;;;8.30;4.13;;;19.40;56.70;;;;;;10408960;28;20049;-60
2021/12/25 05:28:43;;;;;;;9.32;3.45;;;19.50;56.60;;;;;;10409435;28;20049;-60
2021/12/25 05:33:50;;;;;;;7.10;3.33;;;19.60;56.40;;;;;;10409239;28;20046;-60
2021/12/25 05:39:14;;;;;;;5.28;3.00;;;19.70;56.50;;;;;;10410313;28;20440;-60
2021/12/25 05:44:22;;;;;;;8.63;3.08;;;19.70;56.20;;;;;;10408840;28;20086;-60
2021/12/25 05:49:50;;;;;;;7.85;3.10;;;19.80;56.00;;;;;;10401524;28;20121;-59
2021/12/25 05:55:01;;;;;;;8.02;3.15;;;19.80;56.00;;;;;;10409432;28;20053;-60
2021/12/25 06:00:26;;;;;;;7.85;2.92;;;19.90;56.10;;;;;;10401800;28;20054;-60
2021/12/25 06:05:31;;;;;;;5.13;2.80;;;19.90;55.80;;;;;;10409344;28;20054;-59
2021/12/25 06:10:36;;;;;;;8.15;2.75;;;20.00;55.80;;;;;;10409629;28;20057;-60
2021/12/25 06:15:42;;;;;;;4.32;2.42;;;20.00;55.70;;;;;;10408528;28;20053;-60
2021/12/25 06:21:05;;;;;;;4.32;2.20;;;20.00;55.70;;;;;;10413810;28;20049;-60
2021/12/25 06:26:29;;;;;;;4.80;2.22;;;20.10;55.90;;;;;;10415906;28;20409;-60
2021/12/25 06:32:03;;;;;;;4.65;2.40;;;20.10;55.90;;;;;;10407715;28;20383;-60
2021/12/25 06:37:27;;;;;;;6.15;2.22;;;20.10;55.80;;;;;;10415938;28;20041;-60
2021/12/25 06:42:47;;;;;;;4.20;2.42;;;20.10;55.90;;;;;;10414670;28;20041;-60
2021/12/25 06:47:52;;;;;;;3.03;2.08;;;20.20;56.00;;;;;;10413928;28;20098;-60
2021/12/25 06:53:15;;;;;;;10.65;2.60;;;20.20;56.10;;;;;;10415038;28;20106;-60
2021/12/25 06:58:33;;;;;;;4.85;2.47;;;20.30;56.00;;;;;;10414980;28;20053;-59
2021/12/25 07:03:39;;;;;;;5.00;3.25;;;20.30;56.00;;;;;;10413147;28;20083;-60
2021/12/25 07:09:05;;;;;;;3.97;2.75;;;20.30;56.00;;;;;;10414457;28;20075;-58
2021/12/25 07:14:29;;;;;;;6.45;2.13;;;20.40;56.00;;;;;;10412996;28;20061;-59
2021/12/25 07:19:52;;;;;;;6.57;2.20;;;20.40;56.00;;;;;;10414198;28;20105;-58
2021/12/25 07:25:25;;;;;;;4.18;2.35;;;20.30;55.90;;;;;;10414111;28;20050;-59
2021/12/25 07:30:52;;;;;;;5.72;2.35;;;20.20;56.30;;;;;;10411714;28;20045;-59
2021/12/25 07:35:59;;;;;;;4.68;2.63;;;20.10;56.60;;;;;;10414670;28;20061;-59
2021/12/25 07:41:05;;;;;;;5.35;2.60;;;20.00;56.80;;;;;;10415355;28;20486;-59
2021/12/25 07:46:10;;;;;;;6.43;2.78;;;19.90;56.90;;;;;;10412165;28;20098;-59
2021/12/25 07:51:15;;;;;;;10.70;3.28;;;19.90;57.00;;;;;;10412896;28;20062;-59
2021/12/25 07:56:24;;;;;;;5.78;2.40;;;19.90;57.10;;;;;;10409195;28;20049;-59
2021/12/25 08:01:31;;;;;;;6.93;2.47;;;19.80;56.90;;;;;;10410358;28;20049;-60
2021/12/25 08:06:36;;;;;;;9.20;2.58;;;19.70;56.80;;;;;;10407774;28;20045;-60
2021/12/25 08:11:40;;;;;;;10.48;2.75;;;19.70;56.90;;;;;;10411563;28;20054;-59
2021/12/25 08:16:45;;;;;;;6.15;2.58;;;19.70;56.60;;;;;;10412200;28;20409;-59
2021/12/25 08:21:50;;;;;;;14.98;3.75;;;19.70;56.70;;;;;;10409967;28;20106;-60
2021/12/25 08:27:14;;;;;;;7.60;3.05;;;19.70;56.70;;;;;;10411262;28;20486;-60
2021/12/25 08:32:40;;;;;;;13.73;3.08;;;19.60;56.70;;;;;;10407549;28;20053;-60
2021/12/25 08:38:24;;;;;;;6.70;2.20;;;19.60;56.90;;;;;;10284086;28;20047;-59
2021/12/25 08:43:34;;;;;;;6.95;3.13;;;19.50;57.00;;;;;;10283576;28;20050;-59
2021/12/25 08:48:38;;;;;;;18.98;7.15;;;19.50;57.00;;;;;;10285089;28;20094;-59
2021/12/25 08:53:43;;;;;;;13.95;9.02;;;19.50;57.00;;;;;;10284462;28;20116;-59
2021/12/25 08:58:48;;;;;;;17.60;13.60;;;19.50;56.70;;;;;;10284875;28;20145;-59
2021/12/25 09:03:55;;;;;;;20.38;12.00;;;19.60;56.50;;;;;;10245464;28;20445;-59
2021/12/25 09:09:00;;;;;;;19.90;12.95;;;19.70;56.30;;;;;;10335490;28;20061;-59
2021/12/25 09:14:06;;;;;;;16.33;11.63;;;19.80;56.20;;;;;;10369737;28;20100;-59
2021/12/25 09:19:11;;;;;;;14.25;10.55;;;19.90;56.00;;;;;;10369516;28;20053;-59
2021/12/25 09:24:16;;;;;;;12.85;9.75;;;20.10;55.90;;;;;;10370207;28;20054;-59
2021/12/25 09:29:21;;;;;;;14.88;10.60;;;20.10;55.90;;;;;;10369465;28;20046;-59
2021/12/25 09:34:26;;;;;;;13.95;9.55;;;20.20;55.90;;;;;;10368993;28;20054;-59
2021/12/25 09:39:32;;;;;;;12.63;9.05;;;20.30;56.10;;;;;;10367372;28;20431;-57
2021/12/25 09:44:37;;;;;;;12.52;9.32;;;20.30;56.40;;;;;;10367042;28;20103;-58
2021/12/25 09:49:42;;;;;;;13.32;8.77;;;20.30;56.50;;;;;;10368575;28;20049;-58
2021/12/25 09:54:47;;;;;;;24.88;8.57;;;20.30;56.40;;;;;;10385221;28;20102;-60
2021/12/25 09:59:53;;;;;;;10.20;6.15;;;20.30;57.00;;;;;;10407483;28;20044;-59
2021/12/25 10:04:58;;;;;;;151.75;25.50;;;20.60;57.40;;;;;;10405439;28;20088;-58
2021/12/25 10:10:10;;;;;;;88.95;15.95;;;20.50;58.00;;;;;;10409857;28;20483;-59
2021/12/25 10:15:25;;;;;;;43.97;10.05;;;20.50;58.30;;;;;;10409278;28;20050;-59
2021/12/25 10:20:33;;;;;;;25.55;6.50;;;20.50;58.40;;;;;;10409543;28;20045;-59
2021/12/25 10:25:49;;;;;;;24.25;4.55;;;20.50;58.30;;;;;;10408237;28;20054;-58
2021/12/25 10:31:13;;;;;;;14.15;3.40;;;20.60;58.30;;;;;;10408319;28;20046;-58
2021/12/25 10:36:33;;;;;;;8.25;2.90;;;20.60;58.20;;;;;;10408193;28;20098;-59
2021/12/25 10:41:49;;;;;;;7.10;1.88;;;20.70;58.20;;;;;;10407546;28;20042;-58
2021/12/25 10:47:03;;;;;;;3.47;1.40;;;20.70;58.10;;;;;;10408359;28;20049;-58
2021/12/25 10:52:14;;;;;;;6.47;1.50;;;20.70;57.90;;;;;;10408254;28;20126;-59
2021/12/25 10:57:40;;;;;;;2.40;1.60;;;20.80;57.80;;;;;;10407843;28;20417;-59
2021/12/25 11:02:46;;;;;;;3.85;1.60;;;20.80;57.60;;;;;;10408134;28;20053;-59
2021/12/25 11:08:12;;;;;;;3.75;1.85;;;20.90;57.30;;;;;;10412302;28;20092;-59
2021/12/25 11:13:23;;;;;;;4.50;1.95;;;20.90;57.10;;;;;;10414724;28;20425;-59
2021/12/25 11:18:28;;;;;;;3.58;2.08;;;20.90;56.90;;;;;;10413111;28;20046;-59
2021/12/25 11:23:33;;;;;;;4.22;2.00;;;20.90;56.60;;;;;;10414349;28;20050;-58
2021/12/25 11:28:39;;;;;;;4.97;2.70;;;20.90;56.50;;;;;;10413804;28;20413;-58
2021/12/25 11:33:44;;;;;;;4.70;2.72;;;20.90;56.50;;;;;;10414101;28;20478;-58
2021/12/25 11:38:51;;;;;;;7.10;3.00;;;20.90;56.30;;;;;;10413641;28;20494;-59
2021/12/25 11:43:57;;;;;;;5.97;3.58;;;20.80;56.20;;;;;;10412108;28;20053;-59
2021/12/25 11:49:14;;;;;;;5.10;3.70;;;20.80;56.10;;;;;;10413285;28;20045;-59
2021/12/25 11:54:42;;;;;;;6.47;3.90;;;20.80;55.90;;;;;;10412900;28;20102;-59
2021/12/25 11:59:52;;;;;;;8.05;4.38;;;20.80;55.80;;;;;;10413360;28;20526;-59
2021/12/25 12:05:18;;;;;;;6.68;4.28;;;20.80;55.70;;;;;;10412884;28;20558;-59
2021/12/25 12:10:48;;;;;;;10.52;4.82;;;20.70;55.50;;;;;;10412479;28;20050;-58
2021/12/25 12:16:14;;;;;;;9.05;4.75;;;20.70;55.40;;;;;;10411032;28;20046;-58
2021/12/25 12:21:44;;;;;;;8.88;5.07;;;20.70;55.30;;;;;;10434706;28;20097;-58
2021/12/25 12:26:53;;;;;;;10.25;5.45;;;20.60;55.10;;;;;;10411938;28;20054;-59
2021/12/25 12:31:58;;;;;;;11.93;5.32;;;20.60;55.10;;;;;;10412383;28;20033;-59
2021/12/25 12:37:15;;;;;;;11.82;6.55;;;20.50;55.00;;;;;;10410486;28;20053;-58
2021/12/25 12:42:20;;;;;;;15.63;8.38;;;20.50;55.00;;;;;;10411920;28;20041;-58
2021/12/25 12:47:40;;;;;;;15.05;7.93;;;20.50;55.00;;;;;;10411460;28;20049;-58
2021/12/25 12:52:58;;;;;;;12.73;8.32;;;20.40;54.90;;;;;;10411367;28;20053;-58
2021/12/25 12:58:11;;;;;;;16.77;8.30;;;20.40;54.80;;;;;;10411224;28;20054;-59
2021/12/25 13:03:17;;;;;;;15.80;8.32;;;20.30;54.80;;;;;;10411294;28;20058;-59
2021/12/25 13:08:32;;;;;;;16.63;8.77;;;20.30;54.70;;;;;;10411063;28;20041;-59
2021/12/25 13:13:50;;;;;;;13.10;7.55;;;20.30;54.70;;;;;;10442683;28;20478;-58
2021/12/25 13:18:57;;;;;;;14.50;8.63;;;20.20;54.60;;;;;;10410835;28;20049;-59
2021/12/25 13:24:09;;;;;;;17.65;8.02;;;20.20;54.50;;;;;;10394847;28;20050;-59
2021/12/25 13:29:19;;;;;;;15.00;7.80;;;20.10;54.50;;;;;;10423339;28;20045;-58
2021/12/25 13:34:24;;;;;;;13.85;8.13;;;20.10;54.50;;;;;;10410316;28;20041;-58
2021/12/25 13:39:32;;;;;;;14.93;8.32;;;20.00;54.30;;;;;;10409624;28;20045;-58
2021/12/25 13:44:44;;;;;;;14.48;8.40;;;20.00;54.30;;;;;;10409819;28;20049;-58
2021/12/25 13:49:59;;;;;;;15.32;8.38;;;19.90;54.10;;;;;;10409531;28;20048;-58
2021/12/25 13:55:10;;;;;;;16.25;8.00;;;19.90;54.20;;;;;;10409862;28;20540;-58
2021/12/25 14:00:20;;;;;;;15.68;7.93;;;19.80;54.10;;;;;;10409732;28;20049;-58
2021/12/25 14:05:28;;;;;;;15.20;7.72;;;19.80;54.10;;;;;;10409263;28;20102;-58
2021/12/25 14:10:35;;;;;;;15.18;7.82;;;19.70;54.10;;;;;;10440457;28;20049;-58
2021/12/25 14:15:42;;;;;;;16.17;8.15;;;19.70;54.30;;;;;;10408806;28;20049;-58
2021/12/25 14:20:47;;;;;;;14.00;7.83;;;19.60;54.00;;;;;;10408582;28;20485;-58
2021/12/25 14:25:58;;;;;;;14.60;7.80;;;19.50;54.10;;;;;;10408819;28;20054;-58
2021/12/25 14:31:05;;;;;;;15.38;8.40;;;19.50;54.10;;;;;;10408755;28;20120;-59
2021/12/25 14:36:11;;;;;;;17.95;9.07;;;19.50;54.20;;;;;;10408785;28;20091;-58
2021/12/25 14:41:25;;;;;;;15.65;7.93;;;19.40;54.20;;;;;;10411941;28;20478;-58
2021/12/25 14:46:30;;;;;;;19.15;9.13;;;19.30;54.30;;;;;;10406963;28;20050;-59
2021/12/25 14:51:37;;;;;;;17.02;8.27;;;19.30;54.40;;;;;;10414965;28;20447;-60
2021/12/25 14:56:47;;;;;;;14.20;7.40;;;19.30;54.60;;;;;;10416186;28;20053;-59
2021/12/25 15:01:56;;;;;;;12.02;5.45;;;19.30;55.00;;;;;;10432039;27;20319;-60
2021/12/25 15:07:09;;;;;;;10.38;5.15;;;19.20;55.40;;;;;;10524683;27;20045;-61
2021/12/25 15:12:22;;;;;;;10.60;5.07;;;19.40;56.00;;;;;;10611159;27;20044;-60
2021/12/25 15:17:31;;;;;;;19.52;6.63;;;19.30;56.00;;;;;;10616173;27;20039;-61
2021/12/25 15:22:38;;;;;;;12.20;5.35;;;19.30;56.80;;;;;;10624205;27;20100;-61
2021/12/25 15:27:50;;;;;;;8.80;3.70;;;19.30;56.60;;;;;;10629618;27;20469;-61
2021/12/25 15:32:57;;;;;;;9.77;3.38;;;19.20;56.80;;;;;;10629588;27;20461;-61
2021/12/25 15:38:03;;;;;;;8.10;3.03;;;19.10;56.80;;;;;;10630194;27;20051;-61
2021/12/25 15:43:08;;;;;;;7.85;3.33;;;19.10;56.90;;;;;;10629536;27;20093;-61
2021/12/25 15:48:13;;;;;;;6.63;2.97;;;19.10;56.90;;;;;;10628940;27;20559;-61
2021/12/25 15:53:19;;;;;;;18.17;3.35;;;19.00;56.90;;;;;;10628259;27;20043;-61
2021/12/25 15:58:24;;;;;;;7.50;3.40;;;19.00;56.90;;;;;;10628590;27;20050;-61
2021/12/25 16:03:32;;;;;;;6.55;3.05;;;19.10;57.00;;;;;;10628385;27;20491;-61
2021/12/25 16:08:38;;;;;;;5.95;3.40;;;19.20;56.90;;;;;;10628272;27;20047;-62
2021/12/25 16:13:43;;;;;;;4.40;3.10;;;19.30;56.90;;;;;;10628967;27;20072;-62
2021/12/25 16:18:50;;;;;;;5.90;3.22;;;19.40;56.90;;;;;;10628429;27;20544;-61
2021/12/25 16:23:56;;;;;;;5.72;3.10;;;19.40;56.90;;;;;;10609796;27;20088;-61
2021/12/25 16:29:01;;;;;;;8.70;3.67;;;19.50;56.90;;;;;;10627231;27;20441;-61
2021/12/25 16:34:09;;;;;;;7.82;2.90;;;19.60;56.90;;;;;;10627866;27;20035;-61
2021/12/25 16:39:16;;;;;;;6.03;3.13;;;19.60;56.90;;;;;;10627285;27;20047;-61
2021/12/25 16:44:23;;;;;;;7.07;3.95;;;19.70;56.90;;;;;;10626748;27;20043;-61
2021/12/25 16:49:28;;;;;;;6.78;3.15;;;19.80;56.90;;;;;;10626404;27;20047;-61
2021/12/25 16:54:34;;;;;;;5.53;3.13;;;19.80;56.90;;;;;;10626719;27;20108;-61
2021/12/25 16:59:58;;;;;;;7.70;3.33;;;19.90;56.90;;;;;;10626188;27;20047;-61
2021/12/25 17:05:03;;;;;;;4.90;3.28;;;20.00;57.00;;;;;;10624971;27;20216;-62
2021/12/25 17:10:09;;;;;;;6.03;3.35;;;20.00;56.90;;;;;;10626124;27;20039;-61
2021/12/25 17:15:20;;;;;;;6.82;3.60;;;20.10;56.90;;;;;;10607395;27;20058;-61
2021/12/25 17:20:28;;;;;;;7.28;3.67;;;20.10;56.90;;;;;;10625117;27;20069;-61
2021/12/25 17:25:34;;;;;;;7.60;4.05;;;20.20;56.90;;;;;;10624955;27;20055;-61
2021/12/25 17:30:46;;;;;;;6.25;3.58;;;20.30;56.90;;;;;;10624780;27;20548;-61
2021/12/25 17:35:56;;;;;;;8.95;4.38;;;20.30;56.90;;;;;;10625147;27;20056;-61
2021/12/25 17:41:04;;;;;;;8.55;4.43;;;20.30;56.90;;;;;;10624702;27;20540;-61
2021/12/25 17:46:10;;;;;;;6.60;4.18;;;20.40;57.00;;;;;;10624242;27;20047;-61
2021/12/25 17:51:15;;;;;;;7.18;4.28;;;20.40;57.00;;;;;;10623857;27;20047;-61
2021/12/25 17:56:20;;;;;;;8.90;4.93;;;20.40;56.90;;;;;;10624010;27;20404;-62
2021/12/25 18:01:25;;;;;;;7.07;4.25;;;20.50;56.90;;;;;;10623734;27;20096;-61
2021/12/25 18:06:30;;;;;;;8.18;4.38;;;20.50;56.90;;;;;;10624438;27;20375;-61
2021/12/25 18:11:35;;;;;;;10.63;5.05;;;20.50;56.90;;;;;;10624039;27;20043;-62
2021/12/25 18:16:40;;;;;;;7.20;4.40;;;20.60;57.00;;;;;;10623365;27;20047;-61
2021/12/25 18:21:45;;;;;;;9.05;4.15;;;20.60;57.00;;;;;;10605723;28;20047;-61
2021/12/25 18:26:50;;;;;;;10.25;4.40;;;20.70;57.00;;;;;;10623579;28;20116;-61
2021/12/25 18:31:55;;;;;;;10.57;5.00;;;20.70;57.00;;;;;;10623724;28;20043;-60
2021/12/25 18:37:01;;;;;;;8.25;4.43;;;20.60;56.90;;;;;;10623832;28;20095;-61
2021/12/25 18:42:08;;;;;;;6.97;4.10;;;20.70;56.90;;;;;;10583762;28;20162;-61
2021/12/25 18:47:13;;;;;;;8.10;4.10;;;20.70;57.00;;;;;;10623354;28;20051;-61
2021/12/25 18:52:18;;;;;;;8.93;4.80;;;20.70;56.90;;;;;;10623374;28;20043;-61
2021/12/25 18:57:23;;;;;;;11.20;6.07;;;20.70;56.90;;;;;;10622984;28;20508;-61
2021/12/25 19:02:28;;;;;;;14.57;8.15;;;20.70;56.90;;;;;;10622798;28;20126;-61
2021/12/25 19:07:33;;;;;;;15.85;8.95;;;20.60;56.80;;;;;;10622491;28;20055;-61
2021/12/25 19:12:42;;;;;;;14.32;8.32;;;20.60;56.90;;;;;;10623242;28;20039;-61
2021/12/25 19:17:48;;;;;;;13.70;8.18;;;20.50;56.80;;;;;;10622694;28;20047;-61
2021/12/25 19:22:56;;;;;;;13.70;8.52;;;20.50;56.90;;;;;;10622242;28;20449;-61
2021/12/25 19:28:02;;;;;;;14.70;8.98;;;20.50;56.90;;;;;;10626553;27;20061;-61
2021/12/25 19:33:07;;;;;;;14.57;8.25;;;20.50;57.10;;;;;;10629709;27;20043;-61
2021/12/25 19:38:16;;;;;;;12.90;8.13;;;20.40;57.00;;;;;;10629674;27;20476;-62
2021/12/25 19:43:27;;;;;;;13.65;8.13;;;20.40;57.00;;;;;;10611410;27;20051;-61
2021/12/25 19:48:32;;;;;;;14.25;8.00;;;20.30;57.00;;;;;;10629313;27;20059;-61
2021/12/25 19:53:39;;;;;;;14.75;7.82;;;20.30;57.00;;;;;;10630383;27;20043;-61
2021/12/25 19:58:45;;;;;;;15.80;8.85;;;20.20;57.00;;;;;;10611310;27;20133;-61
2021/12/25 20:03:53;;;;;;;13.48;7.80;;;20.20;57.20;;;;;;10628517;27;20408;-61
2021/12/25 20:09:03;;;;;;;12.57;7.65;;;20.10;57.10;;;;;;10628877;27;20035;-61
2021/12/25 20:14:08;;;;;;;13.95;8.27;;;20.10;57.20;;;;;;10628201;27;20039;-61
2021/12/25 20:19:13;;;;;;;13.63;8.35;;;20.00;57.20;;;;;;10627816;27;20073;-61
2021/12/25 20:24:18;;;;;;;12.68;7.78;;;20.00;57.30;;;;;;10609334;27;20043;-61
2021/12/25 20:29:23;;;;;;;12.27;8.18;;;19.90;57.30;;;;;;10627943;27;20035;-61
2021/12/25 20:34:28;;;;;;;12.98;8.18;;;19.90;57.30;;;;;;10452813;28;20048;-61
2021/12/25 20:39:33;;;;;;;12.85;8.48;;;19.80;57.30;;;;;;10452656;28;20493;-61
2021/12/25 20:49:47;;;;;;;14.98;9.00;;;19.70;57.30;;;;;;10453126;28;20121;-61
2021/12/25 20:54:51;;;;;;;14.45;9.00;;;19.70;57.40;;;;;;10452110;28;20114;-61
2021/12/25 20:59:57;;;;;;;12.98;8.55;;;19.70;57.40;;;;;;10452030;28;20049;-60
2021/12/25 21:05:02;;;;;;;15.15;9.88;;;19.60;57.40;;;;;;10452653;28;20053;-61
2021/12/25 21:10:08;;;;;;;15.82;9.27;;;19.60;57.40;;;;;;10452302;28;20041;-61
2021/12/25 21:15:13;;;;;;;15.57;9.95;;;19.50;57.40;;;;;;10451311;28;20049;-60
2021/12/25 21:20:20;;;;;;;16.02;9.98;;;19.50;57.40;;;;;;10451466;28;20098;-61
2021/12/25 21:25:27;;;;;;;16.50;10.03;;;19.50;58.10;;;;;;10451480;28;20053;-60
2021/12/25 21:30:33;;;;;;;16.90;9.65;;;19.50;57.50;;;;;;10451644;28;20041;-61
2021/12/25 21:35:39;;;;;;;14.18;8.82;;;19.40;57.40;;;;;;10450846;28;20052;-61
2021/12/25 21:40:46;;;;;;;15.35;9.48;;;19.40;57.40;;;;;;10437272;28;20049;-61
2021/12/25 21:45:51;;;;;;;18.45;9.43;;;19.40;57.40;;;;;;10430306;28;20044;-61
2021/12/25 21:50:56;;;;;;;14.80;9.70;;;19.30;57.70;;;;;;10449542;28;20049;-60
2021/12/25 21:56:00;;;;;;;23.23;8.95;;;19.30;58.10;;;;;;10434957;28;20057;-61
2021/12/25 22:01:05;;;;;;;16.02;8.77;;;19.30;58.40;;;;;;10433903;28;20053;-60
2021/12/25 22:06:11;;;;;;;17.08;9.57;;;19.30;58.50;;;;;;10450551;27;20052;-61
2021/12/25 22:11:16;;;;;;;17.05;9.00;;;19.30;58.70;;;;;;10432624;28;20070;-61
2021/12/25 22:16:22;;;;;;;19.17;9.90;;;19.30;58.70;;;;;;10433490;28;20041;-61
2021/12/25 22:21:28;;;;;;;17.90;10.00;;;19.30;58.70;;;;;;10449869;28;20407;-61
2021/12/25 22:26:33;;;;;;;17.88;9.80;;;19.20;58.60;;;;;;10431913;28;20098;-60
2021/12/25 22:31:38;;;;;;;22.02;9.18;;;19.20;58.70;;;;;;10449415;28;20546;-61
2021/12/25 22:36:42;;;;;;;17.60;10.15;;;19.20;58.80;;;;;;10431780;28;20064;-61
2021/12/25 22:41:48;;;;;;;19.10;9.25;;;19.20;58.90;;;;;;10432697;28;20070;-60
2021/12/25 22:46:52;;;;;;;14.30;8.68;;;19.20;58.90;;;;;;10433181;28;20078;-60
2021/12/25 22:51:57;;;;;;;18.58;8.85;;;19.20;59.00;;;;;;10448939;28;20049;-61
2021/12/25 22:57:05;;;;;;;11.98;7.43;;;19.20;59.00;;;;;;10447867;28;20463;-60
2021/12/25 23:02:09;;;;;;;16.13;9.40;;;19.20;59.10;;;;;;10447345;27;20046;-60
2021/12/25 23:07:14;;;;;;;18.60;7.78;;;19.20;59.20;;;;;;10451119;28;20070;-60
2021/12/25 23:12:21;;;;;;;15.02;5.28;;;19.10;59.10;;;;;;10452048;28;20485;-60
2021/12/25 23:17:25;;;;;;;6.68;3.67;;;19.10;59.20;;;;;;10452549;28;20110;-60
2021/12/25 23:22:30;;;;;;;4.78;2.50;;;19.00;59.20;;;;;;10454079;28;20041;-60
2021/12/25 23:27:36;;;;;;;3.50;2.13;;;19.10;59.30;;;;;;10452192;28;20098;-60
2021/12/25 23:32:42;;;;;;;4.20;1.52;;;19.00;59.30;;;;;;10452909;28;20049;-60
2021/12/25 23:37:47;;;;;;;2.92;1.50;;;18.90;59.20;;;;;;10455185;28;20401;-60
2021/12/25 23:42:54;;;;;;;3.65;1.30;;;18.90;59.30;;;;;;10455662;28;20489;-60
2021/12/25 23:48:00;;;;;;;2.22;1.40;;;18.90;59.30;;;;;;10455567;28;20090;-60
2021/12/25 23:53:05;;;;;;;3.47;1.25;;;18.90;59.50;;;;;;10454354;28;20457;-61
2021/12/25 23:58:16;;;;;;;1.30;1.20;;;18.90;59.50;;;;;;10454747;28;20101;-60
